sensor_id;sensor_type;location;lat;lon;timestamp;temperature;humidity
75430;DHT22;64127;51.488;5.462;2023-05-07T00:00:52;16.90;99.90
75430;DHT22;64127;51.488;5.462;2023-05-07T00:03:24;17.00;99.90
75430;DHT22;64127;51.488;5.462;2023-05-07T00:05:58;16.90;99.90
75430;DHT22;64127;51.488;5.462;2023-05-07T00:08:30;17.00;99.90
75430;DHT22;64127;51.488;5.462;2023-05-07T00:11:02;17.00;99.90
75430;DHT22;64127;51.488;5.462;2023-05-07T00:13:34;17.00;99.90
75430;DHT22;64127;51.488;5.462;2023-05-07T00:16:07;17.00;99.90
75430;DHT22;64127;51.488;5.462;2023-05-07T00:18:39;17.00;99.90
75430;DHT22;64127;51.488;5.462;2023-05-07T00:21:11;17.00;99.90
75430;DHT22;64127;51.488;5.462;2023-05-07T00:23:43;17.00;99.90
75430;DHT22;64127;51.488;5.462;2023-05-07T00:26:16;17.00;99.90
75430;DHT22;64127;51.488;5.462;2023-05-07T00:28:48;17.00;99.90
75430;DHT22;64127;51.488;5.462;2023-05-07T00:31:20;17.00;99.90
75430;DHT22;64127;51.488;5.462;2023-05-07T00:33:52;17.00;99.90
75430;DHT22;64127;51.488;5.462;2023-05-07T00:36:24;17.00;99.90
75430;DHT22;64127;51.488;5.462;2023-05-07T00:39:00;17.00;99.90
75430;DHT22;64127;51.488;5.462;2023-05-07T00:41:33;17.00;99.90
75430;DHT22;64127;51.488;5.462;2023-05-07T00:44:06;17.00;99.90
75430;DHT22;64127;51.488;5.462;2023-05-07T00:46:38;17.00;99.90
75430;DHT22;64127;51.488;5.462;2023-05-07T00:49:11;16.90;99.90
75430;DHT22;64127;51.488;5.462;2023-05-07T00:51:43;17.00;99.90
75430;DHT22;64127;51.488;5.462;2023-05-07T00:54:16;16.90;99.90
75430;DHT22;64127;51.488;5.462;2023-05-07T00:56:49;16.90;99.90
75430;DHT22;64127;51.488;5.462;2023-05-07T00:59:21;16.90;99.90
75430;DHT22;64127;51.488;5.462;2023-05-07T01:01:53;16.90;99.90
75430;DHT22;64127;51.488;5.462;2023-05-07T01:04:26;16.90;99.90
75430;DHT22;64127;51.488;5.462;2023-05-07T01:06:59;16.90;99.90
75430;DHT22;64127;51.488;5.462;2023-05-07T01:09:34;16.80;99.90
75430;DHT22;64127;51.488;5.462;2023-05-07T01:12:08;16.80;99.90
75430;DHT22;64127;51.488;5.462;2023-05-07T01:14:41;16.80;99.90
75430;DHT22;64127;51.488;5.462;2023-05-07T01:17:13;16.80;99.90
75430;DHT22;64127;51.488;5.462;2023-05-07T01:19:45;16.80;99.90
75430;DHT22;64127;51.488;5.462;2023-05-07T01:22:35;16.80;99.90
75430;DHT22;64127;51.488;5.462;2023-05-07T01:25:08;16.80;99.90
75430;DHT22;64127;51.488;5.462;2023-05-07T01:27:40;16.80;99.90
75430;DHT22;64127;51.488;5.462;2023-05-07T01:30:12;16.80;99.90
75430;DHT22;64127;51.488;5.462;2023-05-07T01:33:01;16.80;99.90
75430;DHT22;64127;51.488;5.462;2023-05-07T01:35:41;16.80;99.90
75430;DHT22;64127;51.488;5.462;2023-05-07T01:38:18;16.80;99.90
75430;DHT22;64127;51.488;5.462;2023-05-07T01:40:50;16.80;99.90
75430;DHT22;64127;51.488;5.462;2023-05-07T01:43:22;16.80;99.90
75430;DHT22;64127;51.488;5.462;2023-05-07T01:45:55;16.80;99.90
75430;DHT22;64127;51.488;5.462;2023-05-07T01:48:28;16.70;99.90
75430;DHT22;64127;51.488;5.462;2023-05-07T01:51:02;16.80;99.90
75430;DHT22;64127;51.488;5.462;2023-05-07T01:56:10;16.70;99.90
75430;DHT22;64127;51.488;5.462;2023-05-07T01:58:43;16.70;99.90
75430;DHT22;64127;51.488;5.462;2023-05-07T02:01:16;16.70;99.90
75430;DHT22;64127;51.488;5.462;2023-05-07T02:03:48;16.70;99.90
75430;DHT22;64127;51.488;5.462;2023-05-07T02:06:21;16.70;99.90
75430;DHT22;64127;51.488;5.462;2023-05-07T02:08:53;16.70;99.90
75430;DHT22;64127;51.488;5.462;2023-05-07T02:11:25;16.70;99.90
75430;DHT22;64127;51.488;5.462;2023-05-07T02:13:57;16.70;99.90
75430;DHT22;64127;51.488;5.462;2023-05-07T02:16:29;16.60;99.90
75430;DHT22;64127;51.488;5.462;2023-05-07T02:19:01;16.70;99.90
75430;DHT22;64127;51.488;5.462;2023-05-07T02:21:33;16.60;99.90
75430;DHT22;64127;51.488;5.462;2023-05-07T02:24:05;16.60;99.90
75430;DHT22;64127;51.488;5.462;2023-05-07T02:26:37;16.60;99.90
75430;DHT22;64127;51.488;5.462;2023-05-07T02:29:09;16.60;99.90
75430;DHT22;64127;51.488;5.462;2023-05-07T02:31:41;16.60;99.90
75430;DHT22;64127;51.488;5.462;2023-05-07T02:34:13;16.60;99.90
75430;DHT22;64127;51.488;5.462;2023-05-07T02:36:45;16.60;99.90
75430;DHT22;64127;51.488;5.462;2023-05-07T02:39:17;16.60;99.90
75430;DHT22;64127;51.488;5.462;2023-05-07T02:41:49;16.60;99.90
75430;DHT22;64127;51.488;5.462;2023-05-07T02:44:21;16.60;99.90
75430;DHT22;64127;51.488;5.462;2023-05-07T02:46:53;16.60;99.90
75430;DHT22;64127;51.488;5.462;2023-05-07T02:49:25;16.50;99.90
75430;DHT22;64127;51.488;5.462;2023-05-07T02:51:57;16.60;99.90
75430;DHT22;64127;51.488;5.462;2023-05-07T02:54:29;16.60;99.90
75430;DHT22;64127;51.488;5.462;2023-05-07T02:57:01;16.60;99.90
75430;DHT22;64127;51.488;5.462;2023-05-07T02:59:33;16.60;99.90
75430;DHT22;64127;51.488;5.462;2023-05-07T03:02:05;16.60;99.90
75430;DHT22;64127;51.488;5.462;2023-05-07T03:04:40;16.50;99.90
75430;DHT22;64127;51.488;5.462;2023-05-07T03:07:12;16.60;99.90
75430;DHT22;64127;51.488;5.462;2023-05-07T03:09:44;16.60;99.90
75430;DHT22;64127;51.488;5.462;2023-05-07T03:12:16;16.60;99.90
75430;DHT22;64127;51.488;5.462;2023-05-07T03:14:48;16.60;99.90
75430;DHT22;64127;51.488;5.462;2023-05-07T03:17:21;16.60;99.90
75430;DHT22;64127;51.488;5.462;2023-05-07T03:19:53;16.50;99.90
75430;DHT22;64127;51.488;5.462;2023-05-07T03:22:25;16.50;99.90
75430;DHT22;64127;51.488;5.462;2023-05-07T03:24:57;16.50;99.90
75430;DHT22;64127;51.488;5.462;2023-05-07T03:27:29;16.50;99.90
75430;DHT22;64127;51.488;5.462;2023-05-07T03:30:01;16.50;99.90
75430;DHT22;64127;51.488;5.462;2023-05-07T03:32:33;16.50;99.90
75430;DHT22;64127;51.488;5.462;2023-05-07T03:35:07;16.50;99.90
75430;DHT22;64127;51.488;5.462;2023-05-07T03:37:39;16.50;99.90
75430;DHT22;64127;51.488;5.462;2023-05-07T03:40:11;16.50;99.90
75430;DHT22;64127;51.488;5.462;2023-05-07T03:42:44;16.50;99.90
75430;DHT22;64127;51.488;5.462;2023-05-07T03:45:16;16.50;99.90
75430;DHT22;64127;51.488;5.462;2023-05-07T03:47:48;16.50;99.90
75430;DHT22;64127;51.488;5.462;2023-05-07T03:50:20;16.50;99.90
75430;DHT22;64127;51.488;5.462;2023-05-07T03:52:53;16.50;99.90
75430;DHT22;64127;51.488;5.462;2023-05-07T03:55:25;16.50;99.90
75430;DHT22;64127;51.488;5.462;2023-05-07T03:57:56;16.50;99.90
75430;DHT22;64127;51.488;5.462;2023-05-07T04:00:28;16.50;99.90
75430;DHT22;64127;51.488;5.462;2023-05-07T04:03:05;16.50;99.90
75430;DHT22;64127;51.488;5.462;2023-05-07T04:05:37;16.50;99.90
75430;DHT22;64127;51.488;5.462;2023-05-07T04:08:09;16.50;99.90
75430;DHT22;64127;51.488;5.462;2023-05-07T04:10:41;16.50;99.90
75430;DHT22;64127;51.488;5.462;2023-05-07T04:13:13;16.50;99.90
75430;DHT22;64127;51.488;5.462;2023-05-07T04:15:45;16.50;99.90
75430;DHT22;64127;51.488;5.462;2023-05-07T04:18:18;16.50;99.90
75430;DHT22;64127;51.488;5.462;2023-05-07T04:20:50;16.50;99.90
75430;DHT22;64127;51.488;5.462;2023-05-07T04:23:22;16.50;99.90
75430;DHT22;64127;51.488;5.462;2023-05-07T04:25:54;16.50;99.90
75430;DHT22;64127;51.488;5.462;2023-05-07T04:28:26;16.50;99.90
75430;DHT22;64127;51.488;5.462;2023-05-07T04:30:58;16.50;99.90
75430;DHT22;64127;51.488;5.462;2023-05-07T04:33:30;16.50;99.90
75430;DHT22;64127;51.488;5.462;2023-05-07T04:36:03;16.50;99.90
75430;DHT22;64127;51.488;5.462;2023-05-07T04:38:36;16.50;99.90
75430;DHT22;64127;51.488;5.462;2023-05-07T04:41:09;16.50;99.90
75430;DHT22;64127;51.488;5.462;2023-05-07T04:43:41;16.50;99.90
75430;DHT22;64127;51.488;5.462;2023-05-07T04:46:13;16.50;99.90
75430;DHT22;64127;51.488;5.462;2023-05-07T04:48:45;16.50;99.90
75430;DHT22;64127;51.488;5.462;2023-05-07T04:51:17;16.50;99.90
75430;DHT22;64127;51.488;5.462;2023-05-07T04:53:50;16.50;99.90
75430;DHT22;64127;51.488;5.462;2023-05-07T04:56:22;16.50;99.90
75430;DHT22;64127;51.488;5.462;2023-05-07T04:58:54;16.50;99.90
75430;DHT22;64127;51.488;5.462;2023-05-07T05:01:26;16.50;99.90
75430;DHT22;64127;51.488;5.462;2023-05-07T05:03:58;16.50;99.90
75430;DHT22;64127;51.488;5.462;2023-05-07T05:06:32;16.50;99.90
75430;DHT22;64127;51.488;5.462;2023-05-07T05:09:04;16.50;99.90
75430;DHT22;64127;51.488;5.462;2023-05-07T05:11:36;16.50;99.90
75430;DHT22;64127;51.488;5.462;2023-05-07T05:14:08;16.50;99.90
75430;DHT22;64127;51.488;5.462;2023-05-07T05:16:40;16.50;99.90
75430;DHT22;64127;51.488;5.462;2023-05-07T05:19:12;16.50;99.90
75430;DHT22;64127;51.488;5.462;2023-05-07T05:21:44;16.50;99.90
75430;DHT22;64127;51.488;5.462;2023-05-07T05:24:16;16.60;99.90
75430;DHT22;64127;51.488;5.462;2023-05-07T05:26:49;16.60;99.90
75430;DHT22;64127;51.488;5.462;2023-05-07T05:29:21;16.60;99.90
75430;DHT22;64127;51.488;5.462;2023-05-07T05:31:53;16.60;99.90
75430;DHT22;64127;51.488;5.462;2023-05-07T05:34:25;16.60;99.90
75430;DHT22;64127;51.488;5.462;2023-05-07T05:36:58;16.60;99.90
75430;DHT22;64127;51.488;5.462;2023-05-07T05:39:31;16.60;99.90
75430;DHT22;64127;51.488;5.462;2023-05-07T05:42:03;16.70;99.90
75430;DHT22;64127;51.488;5.462;2023-05-07T05:44:35;16.70;99.90
75430;DHT22;64127;51.488;5.462;2023-05-07T05:47:07;16.70;99.90
75430;DHT22;64127;51.488;5.462;2023-05-07T05:49:39;16.70;99.90
75430;DHT22;64127;51.488;5.462;2023-05-07T05:52:12;16.70;99.90
75430;DHT22;64127;51.488;5.462;2023-05-07T05:54:45;16.80;99.90
75430;DHT22;64127;51.488;5.462;2023-05-07T05:57:17;16.80;99.90
75430;DHT22;64127;51.488;5.462;2023-05-07T05:59:50;16.80;99.90
75430;DHT22;64127;51.488;5.462;2023-05-07T06:02:22;16.80;99.90
75430;DHT22;64127;51.488;5.462;2023-05-07T06:04:54;16.80;99.90
75430;DHT22;64127;51.488;5.462;2023-05-07T06:07:26;16.90;99.90
75430;DHT22;64127;51.488;5.462;2023-05-07T06:09:58;16.90;99.90
75430;DHT22;64127;51.488;5.462;2023-05-07T06:12:30;16.90;99.90
75430;DHT22;64127;51.488;5.462;2023-05-07T06:15:03;16.90;99.90
75430;DHT22;64127;51.488;5.462;2023-05-07T06:17:35;16.90;99.90
75430;DHT22;64127;51.488;5.462;2023-05-07T06:20:07;16.90;99.90
75430;DHT22;64127;51.488;5.462;2023-05-07T06:22:40;17.00;99.90
75430;DHT22;64127;51.488;5.462;2023-05-07T06:25:12;17.00;99.90
75430;DHT22;64127;51.488;5.462;2023-05-07T06:27:44;17.00;99.90
75430;DHT22;64127;51.488;5.462;2023-05-07T06:30:16;17.00;99.90
75430;DHT22;64127;51.488;5.462;2023-05-07T06:32:48;17.10;99.90
75430;DHT22;64127;51.488;5.462;2023-05-07T06:35:20;17.10;99.90
75430;DHT22;64127;51.488;5.462;2023-05-07T06:37:52;17.10;99.90
75430;DHT22;64127;51.488;5.462;2023-05-07T06:40:24;17.10;99.90
75430;DHT22;64127;51.488;5.462;2023-05-07T06:42:56;17.10;99.90
75430;DHT22;64127;51.488;5.462;2023-05-07T06:45:28;17.10;99.90
75430;DHT22;64127;51.488;5.462;2023-05-07T06:48:00;17.20;99.90
75430;DHT22;64127;51.488;5.462;2023-05-07T06:50:32;17.20;99.90
75430;DHT22;64127;51.488;5.462;2023-05-07T06:53:04;17.20;99.90
75430;DHT22;64127;51.488;5.462;2023-05-07T06:55:36;17.20;99.90
75430;DHT22;64127;51.488;5.462;2023-05-07T06:58:09;17.30;99.90
75430;DHT22;64127;51.488;5.462;2023-05-07T07:00:41;17.30;99.90
75430;DHT22;64127;51.488;5.462;2023-05-07T07:03:13;17.30;99.90
75430;DHT22;64127;51.488;5.462;2023-05-07T07:05:45;17.30;99.90
75430;DHT22;64127;51.488;5.462;2023-05-07T07:08:17;17.30;99.90
75430;DHT22;64127;51.488;5.462;2023-05-07T07:10:49;17.40;99.90
75430;DHT22;64127;51.488;5.462;2023-05-07T07:13:21;17.30;99.90
75430;DHT22;64127;51.488;5.462;2023-05-07T07:15:53;17.40;99.90
75430;DHT22;64127;51.488;5.462;2023-05-07T07:18:25;17.40;99.90
75430;DHT22;64127;51.488;5.462;2023-05-07T07:20:57;17.40;99.90
75430;DHT22;64127;51.488;5.462;2023-05-07T07:23:29;17.50;99.90
75430;DHT22;64127;51.488;5.462;2023-05-07T07:26:01;17.40;99.90
75430;DHT22;64127;51.488;5.462;2023-05-07T07:28:33;17.50;99.90
75430;DHT22;64127;51.488;5.462;2023-05-07T07:31:05;17.50;99.90
75430;DHT22;64127;51.488;5.462;2023-05-07T07:33:37;17.50;99.90
75430;DHT22;64127;51.488;5.462;2023-05-07T07:36:09;17.60;99.90
75430;DHT22;64127;51.488;5.462;2023-05-07T07:38:41;17.60;99.90
75430;DHT22;64127;51.488;5.462;2023-05-07T07:41:13;17.60;99.90
75430;DHT22;64127;51.488;5.462;2023-05-07T07:43:45;17.70;99.90
75430;DHT22;64127;51.488;5.462;2023-05-07T07:46:20;17.70;99.90
75430;DHT22;64127;51.488;5.462;2023-05-07T07:48:53;17.70;99.90
75430;DHT22;64127;51.488;5.462;2023-05-07T07:51:25;17.80;99.90
75430;DHT22;64127;51.488;5.462;2023-05-07T07:53:58;17.80;99.90
75430;DHT22;64127;51.488;5.462;2023-05-07T07:56:31;17.90;99.90
75430;DHT22;64127;51.488;5.462;2023-05-07T07:59:05;17.90;99.90
75430;DHT22;64127;51.488;5.462;2023-05-07T08:01:37;18.00;99.90
75430;DHT22;64127;51.488;5.462;2023-05-07T08:04:09;18.10;99.90
75430;DHT22;64127;51.488;5.462;2023-05-07T08:06:41;18.10;99.90
75430;DHT22;64127;51.488;5.462;2023-05-07T08:09:14;18.20;99.90
75430;DHT22;64127;51.488;5.462;2023-05-07T08:11:46;18.20;99.90
75430;DHT22;64127;51.488;5.462;2023-05-07T08:14:18;18.30;99.90
75430;DHT22;64127;51.488;5.462;2023-05-07T08:16:50;18.40;99.90
75430;DHT22;64127;51.488;5.462;2023-05-07T08:19:22;18.50;99.90
75430;DHT22;64127;51.488;5.462;2023-05-07T08:21:57;18.60;99.90
75430;DHT22;64127;51.488;5.462;2023-05-07T08:24:29;18.70;99.90
75430;DHT22;64127;51.488;5.462;2023-05-07T08:27:02;18.70;99.90
75430;DHT22;64127;51.488;5.462;2023-05-07T08:29:34;18.80;99.90
75430;DHT22;64127;51.488;5.462;2023-05-07T08:32:06;18.90;99.90
75430;DHT22;64127;51.488;5.462;2023-05-07T08:34:38;19.00;99.90
75430;DHT22;64127;51.488;5.462;2023-05-07T08:37:10;19.00;99.90
75430;DHT22;64127;51.488;5.462;2023-05-07T08:39:43;19.00;99.90
75430;DHT22;64127;51.488;5.462;2023-05-07T08:42:16;19.00;99.90
75430;DHT22;64127;51.488;5.462;2023-05-07T08:44:51;19.00;99.90
75430;DHT22;64127;51.488;5.462;2023-05-07T08:47:30;19.10;99.90
75430;DHT22;64127;51.488;5.462;2023-05-07T08:50:07;19.00;99.90
75430;DHT22;64127;51.488;5.462;2023-05-07T08:52:42;19.10;99.90
75430;DHT22;64127;51.488;5.462;2023-05-07T08:55:15;19.20;99.90
75430;DHT22;64127;51.488;5.462;2023-05-07T08:57:47;19.20;99.90
75430;DHT22;64127;51.488;5.462;2023-05-07T09:00:20;19.20;99.90
75430;DHT22;64127;51.488;5.462;2023-05-07T09:02:53;19.20;99.90
75430;DHT22;64127;51.488;5.462;2023-05-07T09:05:25;19.20;99.90
75430;DHT22;64127;51.488;5.462;2023-05-07T09:08:02;19.20;99.90
75430;DHT22;64127;51.488;5.462;2023-05-07T09:10:34;19.20;99.90
75430;DHT22;64127;51.488;5.462;2023-05-07T09:13:06;19.30;99.90
75430;DHT22;64127;51.488;5.462;2023-05-07T09:15:38;19.30;99.90
75430;DHT22;64127;51.488;5.462;2023-05-07T09:18:10;19.40;99.90
75430;DHT22;64127;51.488;5.462;2023-05-07T09:20:43;19.40;99.90
75430;DHT22;64127;51.488;5.462;2023-05-07T09:23:15;19.50;99.90
75430;DHT22;64127;51.488;5.462;2023-05-07T09:25:48;19.60;99.90
75430;DHT22;64127;51.488;5.462;2023-05-07T09:28:20;19.70;99.90
75430;DHT22;64127;51.488;5.462;2023-05-07T09:30:51;19.70;99.90
75430;DHT22;64127;51.488;5.462;2023-05-07T09:33:26;19.80;99.90
75430;DHT22;64127;51.488;5.462;2023-05-07T09:36:02;19.90;99.90
75430;DHT22;64127;51.488;5.462;2023-05-07T09:38:37;20.10;99.90
75430;DHT22;64127;51.488;5.462;2023-05-07T09:41:11;20.20;99.90
75430;DHT22;64127;51.488;5.462;2023-05-07T09:43:44;20.30;99.90
75430;DHT22;64127;51.488;5.462;2023-05-07T09:46:17;20.40;99.90
75430;DHT22;64127;51.488;5.462;2023-05-07T09:48:53;20.50;99.90
75430;DHT22;64127;51.488;5.462;2023-05-07T09:51:43;20.60;99.90
75430;DHT22;64127;51.488;5.462;2023-05-07T09:54:19;20.60;99.90
75430;DHT22;64127;51.488;5.462;2023-05-07T09:56:52;20.70;99.90
75430;DHT22;64127;51.488;5.462;2023-05-07T09:59:25;20.70;99.90
75430;DHT22;64127;51.488;5.462;2023-05-07T10:02:01;20.80;99.90
75430;DHT22;64127;51.488;5.462;2023-05-07T10:04:36;20.80;99.90
75430;DHT22;64127;51.488;5.462;2023-05-07T10:07:08;20.80;99.90
75430;DHT22;64127;51.488;5.462;2023-05-07T10:09:41;20.80;99.90
75430;DHT22;64127;51.488;5.462;2023-05-07T10:12:16;20.90;99.90
75430;DHT22;64127;51.488;5.462;2023-05-07T10:14:50;21.00;99.90
75430;DHT22;64127;51.488;5.462;2023-05-07T10:17:26;21.10;99.90
75430;DHT22;64127;51.488;5.462;2023-05-07T10:19:58;21.10;99.90
75430;DHT22;64127;51.488;5.462;2023-05-07T10:22:41;21.20;99.90
75430;DHT22;64127;51.488;5.462;2023-05-07T10:25:25;21.40;99.90
75430;DHT22;64127;51.488;5.462;2023-05-07T10:28:06;21.50;99.90
75430;DHT22;64127;51.488;5.462;2023-05-07T10:31:01;21.60;99.90
75430;DHT22;64127;51.488;5.462;2023-05-07T10:33:45;21.80;99.90
75430;DHT22;64127;51.488;5.462;2023-05-07T10:36:19;22.00;99.90
75430;DHT22;64127;51.488;5.462;2023-05-07T10:38:53;22.10;99.90
75430;DHT22;64127;51.488;5.462;2023-05-07T10:41:26;22.30;99.90
75430;DHT22;64127;51.488;5.462;2023-05-07T10:43:58;22.40;99.90
75430;DHT22;64127;51.488;5.462;2023-05-07T10:46:32;22.50;99.90
75430;DHT22;64127;51.488;5.462;2023-05-07T10:49:07;22.60;99.90
75430;DHT22;64127;51.488;5.462;2023-05-07T10:51:39;22.70;99.90
75430;DHT22;64127;51.488;5.462;2023-05-07T10:56:44;22.70;99.90
75430;DHT22;64127;51.488;5.462;2023-05-07T11:02:03;22.80;99.90
75430;DHT22;64127;51.488;5.462;2023-05-07T11:04:38;22.80;99.90
75430;DHT22;64127;51.488;5.462;2023-05-07T11:10:02;22.80;99.90
75430;DHT22;64127;51.488;5.462;2023-05-07T11:15:12;22.80;99.90
75430;DHT22;64127;51.488;5.462;2023-05-07T11:17:57;22.80;99.90
75430;DHT22;64127;51.488;5.462;2023-05-07T11:20:59;22.80;99.90
75430;DHT22;64127;51.488;5.462;2023-05-07T11:26:08;22.70;99.90
75430;DHT22;64127;51.488;5.462;2023-05-07T11:28:43;22.70;99.90
75430;DHT22;64127;51.488;5.462;2023-05-07T11:31:21;22.70;99.90
75430;DHT22;64127;51.488;5.462;2023-05-07T11:33:55;22.60;99.90
75430;DHT22;64127;51.488;5.462;2023-05-07T11:36:32;22.60;99.90
75430;DHT22;64127;51.488;5.462;2023-05-07T11:39:04;22.70;99.90
75430;DHT22;64127;51.488;5.462;2023-05-07T11:41:37;22.70;99.90
75430;DHT22;64127;51.488;5.462;2023-05-07T11:44:09;22.70;99.90
75430;DHT22;64127;51.488;5.462;2023-05-07T11:46:43;22.70;99.90
75430;DHT22;64127;51.488;5.462;2023-05-07T11:49:18;22.70;99.90
75430;DHT22;64127;51.488;5.462;2023-05-07T11:51:50;22.60;99.90
75430;DHT22;64127;51.488;5.462;2023-05-07T11:54:22;22.60;99.90
75430;DHT22;64127;51.488;5.462;2023-05-07T11:56:56;22.60;99.90
75430;DHT22;64127;51.488;5.462;2023-05-07T11:59:28;22.60;99.90
75430;DHT22;64127;51.488;5.462;2023-05-07T12:01:59;22.60;99.90
75430;DHT22;64127;51.488;5.462;2023-05-07T12:04:31;22.60;99.90
75430;DHT22;64127;51.488;5.462;2023-05-07T12:07:03;22.60;99.90
75430;DHT22;64127;51.488;5.462;2023-05-07T12:09:36;22.50;99.90
75430;DHT22;64127;51.488;5.462;2023-05-07T12:12:08;22.50;99.90
75430;DHT22;64127;51.488;5.462;2023-05-07T12:14:42;22.40;99.90
75430;DHT22;64127;51.488;5.462;2023-05-07T12:17:16;22.30;99.90
75430;DHT22;64127;51.488;5.462;2023-05-07T12:19:49;22.20;99.90
75430;DHT22;64127;51.488;5.462;2023-05-07T12:22:21;22.10;99.90
75430;DHT22;64127;51.488;5.462;2023-05-07T12:24:57;22.10;99.90
75430;DHT22;64127;51.488;5.462;2023-05-07T12:27:30;22.00;99.90
75430;DHT22;64127;51.488;5.462;2023-05-07T12:30:03;21.90;99.90
75430;DHT22;64127;51.488;5.462;2023-05-07T12:32:36;21.80;99.90
75430;DHT22;64127;51.488;5.462;2023-05-07T12:35:08;21.70;99.90
75430;DHT22;64127;51.488;5.462;2023-05-07T12:37:41;21.60;99.90
75430;DHT22;64127;51.488;5.462;2023-05-07T12:40:13;21.40;99.90
75430;DHT22;64127;51.488;5.462;2023-05-07T12:42:46;21.00;99.90
75430;DHT22;64127;51.488;5.462;2023-05-07T12:45:18;20.70;99.90
75430;DHT22;64127;51.488;5.462;2023-05-07T12:47:50;20.30;99.90
75430;DHT22;64127;51.488;5.462;2023-05-07T12:50:23;20.00;99.90
75430;DHT22;64127;51.488;5.462;2023-05-07T12:52:55;19.60;99.90
75430;DHT22;64127;51.488;5.462;2023-05-07T12:55:29;19.30;99.90
75430;DHT22;64127;51.488;5.462;2023-05-07T12:58:05;19.10;99.90
75430;DHT22;64127;51.488;5.462;2023-05-07T13:00:38;18.90;99.90
75430;DHT22;64127;51.488;5.462;2023-05-07T13:03:11;18.70;99.90
75430;DHT22;64127;51.488;5.462;2023-05-07T13:05:43;18.60;99.90
75430;DHT22;64127;51.488;5.462;2023-05-07T13:08:24;18.50;99.90
75430;DHT22;64127;51.488;5.462;2023-05-07T13:10:58;18.50;99.90
75430;DHT22;64127;51.488;5.462;2023-05-07T13:13:36;18.50;99.90
75430;DHT22;64127;51.488;5.462;2023-05-07T13:16:11;18.50;99.90
75430;DHT22;64127;51.488;5.462;2023-05-07T13:18:43;18.50;99.90
75430;DHT22;64127;51.488;5.462;2023-05-07T13:21:17;18.50;99.90
75430;DHT22;64127;51.488;5.462;2023-05-07T13:23:49;18.50;99.90
75430;DHT22;64127;51.488;5.462;2023-05-07T13:26:21;18.50;99.90
75430;DHT22;64127;51.488;5.462;2023-05-07T13:28:57;18.50;99.90
75430;DHT22;64127;51.488;5.462;2023-05-07T13:31:29;18.70;99.90
75430;DHT22;64127;51.488;5.462;2023-05-07T13:34:01;18.80;99.90
75430;DHT22;64127;51.488;5.462;2023-05-07T13:36:34;19.00;99.90
75430;DHT22;64127;51.488;5.462;2023-05-07T13:39:08;19.20;99.90
75430;DHT22;64127;51.488;5.462;2023-05-07T13:41:40;19.40;99.90
75430;DHT22;64127;51.488;5.462;2023-05-07T13:44:12;19.50;99.90
75430;DHT22;64127;51.488;5.462;2023-05-07T13:46:44;19.80;99.90
75430;DHT22;64127;51.488;5.462;2023-05-07T13:49:16;20.00;99.90
75430;DHT22;64127;51.488;5.462;2023-05-07T13:51:48;20.10;99.90
75430;DHT22;64127;51.488;5.462;2023-05-07T13:54:20;20.20;99.90
75430;DHT22;64127;51.488;5.462;2023-05-07T13:56:52;20.20;99.90
75430;DHT22;64127;51.488;5.462;2023-05-07T13:59:24;20.30;99.90
75430;DHT22;64127;51.488;5.462;2023-05-07T14:01:56;20.40;99.90
75430;DHT22;64127;51.488;5.462;2023-05-07T14:04:29;20.50;99.90
75430;DHT22;64127;51.488;5.462;2023-05-07T14:07:02;20.50;99.90
75430;DHT22;64127;51.488;5.462;2023-05-07T14:09:34;20.50;99.90
75430;DHT22;64127;51.488;5.462;2023-05-07T14:12:07;20.60;99.90
75430;DHT22;64127;51.488;5.462;2023-05-07T14:14:39;20.60;99.90
75430;DHT22;64127;51.488;5.462;2023-05-07T14:17:11;20.60;99.90
75430;DHT22;64127;51.488;5.462;2023-05-07T14:19:44;20.60;99.90
75430;DHT22;64127;51.488;5.462;2023-05-07T14:22:16;20.60;99.90
75430;DHT22;64127;51.488;5.462;2023-05-07T14:24:48;20.50;99.90
75430;DHT22;64127;51.488;5.462;2023-05-07T14:27:36;20.50;99.90
75430;DHT22;64127;51.488;5.462;2023-05-07T14:30:09;20.50;99.90
75430;DHT22;64127;51.488;5.462;2023-05-07T14:32:41;20.50;99.90
75430;DHT22;64127;51.488;5.462;2023-05-07T14:35:13;20.50;99.90
75430;DHT22;64127;51.488;5.462;2023-05-07T14:37:46;20.50;99.90
75430;DHT22;64127;51.488;5.462;2023-05-07T14:40:18;20.50;99.90
75430;DHT22;64127;51.488;5.462;2023-05-07T14:42:50;20.50;99.90
75430;DHT22;64127;51.488;5.462;2023-05-07T14:45:21;20.50;99.90
75430;DHT22;64127;51.488;5.462;2023-05-07T14:47:53;20.40;99.90
75430;DHT22;64127;51.488;5.462;2023-05-07T14:50:26;20.40;99.90
75430;DHT22;64127;51.488;5.462;2023-05-07T14:52:58;20.30;99.90
75430;DHT22;64127;51.488;5.462;2023-05-07T14:55:30;20.30;99.90
75430;DHT22;64127;51.488;5.462;2023-05-07T14:58:04;20.30;99.90
75430;DHT22;64127;51.488;5.462;2023-05-07T15:00:37;20.30;99.90
75430;DHT22;64127;51.488;5.462;2023-05-07T15:03:10;20.30;99.90
75430;DHT22;64127;51.488;5.462;2023-05-07T15:05:42;20.30;99.90
75430;DHT22;64127;51.488;5.462;2023-05-07T15:08:14;20.30;99.90
75430;DHT22;64127;51.488;5.462;2023-05-07T15:10:46;20.30;99.90
75430;DHT22;64127;51.488;5.462;2023-05-07T15:13:18;20.30;99.90
75430;DHT22;64127;51.488;5.462;2023-05-07T15:15:50;20.30;99.90
75430;DHT22;64127;51.488;5.462;2023-05-07T15:18:23;20.40;99.90
75430;DHT22;64127;51.488;5.462;2023-05-07T15:20:55;20.40;99.90
75430;DHT22;64127;51.488;5.462;2023-05-07T15:23:28;20.40;99.90
75430;DHT22;64127;51.488;5.462;2023-05-07T15:26:00;20.40;99.90
75430;DHT22;64127;51.488;5.462;2023-05-07T15:28:35;20.50;99.90
75430;DHT22;64127;51.488;5.462;2023-05-07T15:31:07;20.50;99.90
75430;DHT22;64127;51.488;5.462;2023-05-07T15:33:40;20.60;99.90
75430;DHT22;64127;51.488;5.462;2023-05-07T15:36:12;20.70;99.90
75430;DHT22;64127;51.488;5.462;2023-05-07T15:38:44;20.70;99.90
75430;DHT22;64127;51.488;5.462;2023-05-07T15:41:16;20.80;99.90
75430;DHT22;64127;51.488;5.462;2023-05-07T15:43:50;20.80;99.90
75430;DHT22;64127;51.488;5.462;2023-05-07T15:46:24;20.70;99.90
75430;DHT22;64127;51.488;5.462;2023-05-07T15:48:57;20.70;99.90
75430;DHT22;64127;51.488;5.462;2023-05-07T15:51:29;20.70;99.90
75430;DHT22;64127;51.488;5.462;2023-05-07T15:54:02;20.60;99.90
75430;DHT22;64127;51.488;5.462;2023-05-07T15:56:34;20.50;99.90
75430;DHT22;64127;51.488;5.462;2023-05-07T15:59:06;20.50;99.90
75430;DHT22;64127;51.488;5.462;2023-05-07T16:01:38;20.50;99.90
75430;DHT22;64127;51.488;5.462;2023-05-07T16:04:11;20.50;99.90
75430;DHT22;64127;51.488;5.462;2023-05-07T16:06:43;20.50;99.90
75430;DHT22;64127;51.488;5.462;2023-05-07T16:09:18;20.50;99.90
75430;DHT22;64127;51.488;5.462;2023-05-07T16:11:50;20.50;99.90
75430;DHT22;64127;51.488;5.462;2023-05-07T16:14:22;20.50;99.90
75430;DHT22;64127;51.488;5.462;2023-05-07T16:16:55;20.50;99.90
75430;DHT22;64127;51.488;5.462;2023-05-07T16:19:27;20.40;99.90
75430;DHT22;64127;51.488;5.462;2023-05-07T16:22:02;20.50;99.90